createdAt,value
2024-02-03T00:02:44.485Z,14.12
2024-02-03T00:12:54.445Z,12.32
2024-02-03T00:23:05.390Z,11.89
2024-02-03T00:33:05.437Z,12.28
2024-02-03T00:43:14.633Z,12.11
2024-02-03T00:53:24.480Z,13.16
2024-02-03T01:03:36.617Z,13.29
2024-02-03T01:13:38.998Z,13.45
2024-02-03T01:23:38.779Z,13.65
2024-02-03T01:33:49.976Z,13.83
2024-02-03T01:43:52.295Z,12.57
2024-02-03T01:53:53.120Z,11.97
2024-02-03T02:03:53.318Z,11.92
2024-02-03T02:13:56.635Z,12.56
2024-02-03T02:23:59.635Z,13.74
2024-02-03T02:33:59.484Z,13.08
2024-02-03T02:44:09.340Z,11.93
2024-02-03T02:54:20.761Z,12.96
2024-02-03T03:04:26.516Z,13
2024-02-03T03:14:33.317Z,12.16
2024-02-03T03:24:33.301Z,14.2
2024-02-03T03:34:43.442Z,12.49
2024-02-03T03:44:45.906Z,13.46
2024-02-03T03:54:47.482Z,14.01
2024-02-03T04:04:55.745Z,14.69
2024-02-03T04:15:09.660Z,13.28
2024-02-03T04:25:14.149Z,12.8
2024-02-03T04:35:14.840Z,13.72
2024-02-03T04:45:15.004Z,13.69
2024-02-03T04:55:20.915Z,14.78
2024-02-03T05:05:20.933Z,13.64
2024-02-03T05:15:24.250Z,13.93
2024-02-03T05:25:25.285Z,14.04
2024-02-03T05:35:23.790Z,12.89
2024-02-03T05:45:36.588Z,13.6
2024-02-03T05:55:36.410Z,12.68
2024-02-03T06:05:53.033Z,11.5
2024-02-03T06:15:55.116Z,11.46
2024-02-03T06:25:54.626Z,11.41
2024-02-03T06:36:04.555Z,12.07
2024-02-03T06:46:14.244Z,11.58
2024-02-03T06:56:24.032Z,13.21
2024-02-03T07:06:34.840Z,11.99
2024-02-03T07:16:35.566Z,10.71
2024-02-03T07:26:35.494Z,11.18
2024-02-03T07:36:45.576Z,12.05
2024-02-03T07:46:45.421Z,11.74
2024-02-03T07:56:55.282Z,12.15
2024-02-03T08:07:04.764Z,12.41
2024-02-03T08:17:14.688Z,11.95
2024-02-03T08:27:24.545Z,11.83
2024-02-03T08:37:34.448Z,11.49
2024-02-03T08:47:44.328Z,11.85
2024-02-03T08:57:54.144Z,11.15
2024-02-03T09:08:04.266Z,10.74
2024-02-03T09:18:05.266Z,10.8
2024-02-03T09:38:06.085Z,9.23
2024-02-03T09:48:17.437Z,10.74
2024-02-03T09:58:17.864Z,11.29
2024-02-03T10:08:17.823Z,9.47
2024-02-03T10:18:27.826Z,10.34
2024-02-03T10:28:37.661Z,10.23
2024-02-03T10:38:49.397Z,10.39
2024-02-03T10:48:50.412Z,8.48
2024-02-03T10:59:00.648Z,8.18
2024-02-03T11:09:04.867Z,8.02
2024-02-03T11:19:08.837Z,9.11
2024-02-03T11:29:07.834Z,8.82
2024-02-03T11:39:19.043Z,8.21
2024-02-03T11:49:20.923Z,8.46
2024-02-03T11:59:25.905Z,9.52
2024-02-03T12:09:27.305Z,9.95
2024-02-03T12:19:29.582Z,10.57
2024-02-03T12:29:30.740Z,9.73
2024-02-03T12:39:49.571Z,12.85
2024-02-03T12:49:39.582Z,11.86
2024-02-03T12:59:54.543Z,11.26
2024-02-03T13:09:59.758Z,10.49
2024-02-03T13:20:06.139Z,7.71
2024-02-03T13:30:09.918Z,7.6
2024-02-03T13:40:14.098Z,7.24
2024-02-03T13:50:15.028Z,8.66
2024-02-03T14:00:15.162Z,6.7
2024-02-03T14:10:15.058Z,6.76
2024-02-03T14:20:28.975Z,5.94
2024-02-03T14:30:28.091Z,6.25
2024-02-03T14:40:28.059Z,6.16
2024-02-03T14:50:28.035Z,5.97
2024-02-03T15:00:39.057Z,5.57
2024-02-03T15:10:38.794Z,6.39
2024-02-03T15:20:49.796Z,6.54
2024-02-03T15:30:52.996Z,7.25
2024-02-03T15:40:54.637Z,8.25
2024-02-03T15:50:53.429Z,7.58
2024-02-03T16:01:03.343Z,7.02
2024-02-03T16:11:17.187Z,7.84
2024-02-03T16:21:19.380Z,7.92
2024-02-03T16:31:24.360Z,8.18
2024-02-03T16:41:27.731Z,7.72
2024-02-03T16:51:35.406Z,6.55
2024-02-03T17:01:38.249Z,6.8
2024-02-03T17:11:38.072Z,6.76
2024-02-03T17:21:47.946Z,7.94
2024-02-03T17:31:57.742Z,7.58
2024-02-03T17:42:07.814Z,7.64
2024-02-03T17:52:12.348Z,8.69
2024-02-03T18:02:12.307Z,7.81
2024-02-03T18:12:24.332Z,8.63
2024-02-03T18:22:24.110Z,7.36
2024-02-03T18:32:35.033Z,7.12
2024-02-03T18:42:35.381Z,8.72
2024-02-03T18:52:35.348Z,9.25
2024-02-03T19:02:46.925Z,8.64
2024-02-03T19:22:49.262Z,8.22
2024-02-03T19:42:53.147Z,9.03
2024-02-03T19:52:56.617Z,9.4
2024-02-03T20:02:31.456Z,12.18
2024-02-03T20:11:33.276Z,16.55
2024-02-03T20:31:35.750Z,10.85
2024-02-03T20:51:40.151Z,11.91
2024-02-03T21:01:40.124Z,15.27
2024-02-03T21:11:50.076Z,12.82
2024-02-03T21:22:00.012Z,13.88
2024-02-03T21:32:15.234Z,13.09
2024-02-03T21:42:15.230Z,13.08
2024-02-03T21:52:25.191Z,12.04
2024-02-03T22:02:33.978Z,12.16
2024-02-03T22:12:44.139Z,11.85
2024-02-03T22:22:45.328Z,11.31
2024-02-03T22:32:46.227Z,11.25
2024-02-03T22:42:51.083Z,10.91
2024-02-03T22:52:50.881Z,12.32
2024-02-03T23:03:00.957Z,11.65
2024-02-03T23:13:01.487Z,12.27
2024-02-03T23:23:03.012Z,12.03
2024-02-03T23:33:03.121Z,11.6
2024-02-03T23:43:02.976Z,11.98
2024-02-03T23:53:13.930Z,12.71
